createdAt,value
2022-12-04T00:01:31.766Z,91.00
2022-12-04T00:03:59.608Z,93.60
2022-12-04T00:06:26.561Z,115.80
2022-12-04T00:08:53.345Z,127.10
2022-12-04T00:11:22.098Z,109.80
2022-12-04T00:13:48.781Z,108.10
2022-12-04T00:16:16.824Z,109.50
2022-12-04T00:18:43.484Z,108.50
2022-12-04T00:21:10.992Z,95.00
2022-12-04T00:23:37.902Z,88.90
2022-12-04T00:26:07.294Z,98.40
2022-12-04T00:28:33.855Z,106.70
2022-12-04T00:31:00.262Z,90.00
2022-12-04T00:33:26.721Z,114.30
2022-12-04T00:35:57.663Z,120.90
2022-12-04T00:38:24.100Z,98.10
2022-12-04T00:40:51.135Z,104.70
2022-12-04T00:43:17.636Z,107.40
2022-12-04T00:45:44.072Z,105.90
2022-12-04T00:48:10.777Z,96.70
2022-12-04T00:50:37.328Z,106.80
2022-12-04T00:53:03.906Z,97.60
2022-12-04T00:55:30.640Z,114.90
2022-12-04T00:57:59.841Z,100.90
2022-12-04T01:00:26.767Z,105.10
2022-12-04T01:02:53.234Z,95.40
2022-12-04T01:05:19.660Z,120.40
2022-12-04T01:07:46.053Z,128.00
2022-12-04T01:10:13.020Z,100.40
2022-12-04T01:12:39.414Z,109.60
2022-12-04T01:15:06.502Z,115.80
2022-12-04T01:17:32.936Z,116.50
2022-12-04T01:19:59.269Z,99.10
2022-12-04T01:22:25.706Z,83.70
2022-12-04T01:24:54.800Z,87.90
2022-12-04T01:27:21.155Z,95.10
2022-12-04T01:29:47.534Z,101.50
2022-12-04T01:32:14.075Z,96.00
2022-12-04T01:34:40.484Z,97.50
2022-12-04T01:37:06.857Z,96.00
2022-12-04T01:39:35.336Z,82.80
2022-12-04T01:42:01.991Z,93.50
2022-12-04T01:44:29.513Z,106.20
2022-12-04T01:47:00.625Z,104.00
2022-12-04T01:52:00.183Z,89.20
2022-12-04T01:54:29.206Z,97.20
2022-12-04T01:57:22.143Z,99.40
2022-12-04T01:59:56.899Z,95.80
2022-12-04T02:02:26.200Z,95.50
2022-12-04T02:04:53.585Z,94.80
2022-12-04T02:07:19.930Z,106.80
2022-12-04T02:09:52.944Z,100.90
2022-12-04T02:12:19.502Z,98.40
2022-12-04T02:15:06.507Z,113.30
2022-12-04T02:17:35.923Z,91.00
2022-12-04T02:20:09.169Z,105.00
2022-12-04T02:22:35.462Z,88.10
2022-12-04T02:25:01.760Z,96.60
2022-12-04T02:27:42.665Z,96.80
2022-12-04T02:30:12.862Z,99.00
2022-12-04T02:32:48.603Z,106.80
2022-12-04T02:35:25.229Z,85.00
2022-12-04T02:37:57.341Z,104.20
2022-12-04T02:40:33.333Z,110.00
2022-12-04T02:43:02.904Z,106.80
2022-12-04T02:45:31.199Z,93.00
2022-12-04T02:48:00.108Z,93.10
2022-12-04T02:50:27.223Z,91.40
2022-12-04T02:52:56.208Z,98.40
2022-12-04T02:55:28.688Z,80.70
2022-12-04T02:57:58.295Z,93.40
2022-12-04T03:00:25.032Z,104.40
2022-12-04T03:03:11.746Z,94.10
2022-12-04T03:05:40.950Z,103.40
2022-12-04T03:08:09.821Z,94.60
2022-12-04T03:10:40.110Z,90.40
2022-12-04T03:13:15.254Z,103.70
2022-12-04T03:15:46.368Z,98.20
2022-12-04T03:20:39.292Z,100.60
2022-12-04T03:23:10.914Z,93.10
2022-12-04T03:25:42.836Z,100.10
2022-12-04T03:28:12.353Z,98.20
2022-12-04T03:30:42.428Z,93.90
2022-12-04T03:33:14.613Z,92.50
2022-12-04T03:35:40.945Z,122.30
2022-12-04T03:38:19.600Z,95.50
2022-12-04T03:40:55.677Z,107.10
2022-12-04T03:43:31.473Z,100.40
2022-12-04T03:46:01.879Z,106.30
2022-12-04T03:48:37.257Z,98.10
2022-12-04T03:51:11.671Z,119.50
2022-12-04T03:53:40.761Z,92.70
2022-12-04T03:56:07.296Z,109.40
2022-12-04T03:58:35.369Z,108.90
2022-12-04T04:01:03.388Z,102.40
2022-12-04T04:03:33.560Z,93.20
2022-12-04T04:06:09.983Z,105.30
2022-12-04T04:08:38.608Z,121.70
2022-12-04T04:11:13.948Z,91.30
2022-12-04T04:14:03.528Z,139.10
2022-12-04T04:16:51.565Z,121.30
2022-12-04T04:19:37.586Z,129.00
2022-12-04T04:22:24.063Z,131.90
2022-12-04T04:24:54.395Z,128.10
2022-12-04T04:27:20.922Z,139.30
2022-12-04T04:29:52.258Z,115.30
2022-12-04T04:32:19.116Z,127.60
2022-12-04T04:34:49.580Z,108.00
2022-12-04T04:37:15.987Z,102.60
2022-12-04T04:39:47.661Z,102.30
2022-12-04T04:42:32.593Z,103.90
2022-12-04T04:44:58.931Z,136.60
2022-12-04T04:47:28.327Z,141.90
2022-12-04T04:49:56.277Z,104.70
2022-12-04T04:52:23.559Z,101.10
2022-12-04T04:54:49.939Z,100.00
2022-12-04T04:57:30.006Z,111.40
2022-12-04T04:59:56.851Z,107.40
2022-12-04T05:02:25.100Z,100.30
2022-12-04T05:04:51.559Z,120.90
2022-12-04T05:07:17.955Z,129.90
2022-12-04T05:09:44.365Z,102.70
2022-12-04T05:12:10.900Z,119.10
2022-12-04T05:14:37.271Z,97.40
2022-12-04T05:17:09.234Z,113.70
2022-12-04T05:19:54.648Z,97.70
2022-12-04T05:22:23.254Z,113.60
2022-12-04T05:24:49.613Z,110.90
2022-12-04T05:27:16.105Z,83.70
2022-12-04T05:29:42.559Z,74.20
2022-12-04T05:32:08.892Z,93.70
2022-12-04T05:34:35.266Z,88.50
2022-12-04T05:37:01.642Z,79.50
2022-12-04T05:39:28.067Z,78.80
2022-12-04T05:41:54.502Z,84.80
2022-12-04T05:44:20.876Z,66.80
2022-12-04T05:46:47.414Z,83.40
2022-12-04T05:49:13.902Z,59.20
2022-12-04T05:51:40.234Z,58.60
2022-12-04T05:54:06.608Z,92.70
2022-12-04T05:56:33.114Z,78.70
2022-12-04T05:58:59.511Z,81.60
2022-12-04T06:01:25.974Z,72.60
2022-12-04T06:03:52.355Z,77.50
2022-12-04T06:06:22.418Z,60.80
2022-12-04T06:08:50.076Z,66.20
2022-12-04T06:11:17.885Z,67.40
2022-12-04T06:13:45.204Z,62.90
2022-12-04T06:16:12.688Z,68.00
2022-12-04T06:18:39.167Z,59.10
2022-12-04T06:21:05.669Z,75.50
2022-12-04T06:23:32.028Z,66.70
2022-12-04T06:26:06.755Z,63.10
2022-12-04T06:28:34.175Z,66.70
2022-12-04T06:31:01.965Z,62.00
2022-12-04T06:33:28.327Z,59.30
2022-12-04T06:36:01.491Z,69.50
2022-12-04T06:38:28.200Z,64.00
2022-12-04T06:40:54.868Z,57.10
2022-12-04T06:43:21.390Z,78.50
2022-12-04T06:45:47.939Z,74.00
2022-12-04T06:48:14.335Z,68.00
2022-12-04T06:50:40.787Z,73.20
2022-12-04T06:53:08.588Z,60.90
2022-12-04T06:55:35.248Z,64.70
2022-12-04T06:58:01.626Z,67.80
2022-12-04T07:00:28.480Z,68.00
2022-12-04T07:06:32.417Z,69.20
2022-12-04T07:09:00.068Z,67.90
2022-12-04T07:11:26.787Z,82.10
2022-12-04T07:13:54.176Z,66.40
2022-12-04T07:16:21.346Z,70.40
2022-12-04T07:18:53.219Z,79.70
2022-12-04T07:21:20.826Z,78.60
2022-12-04T07:23:50.834Z,83.90
2022-12-04T07:26:17.645Z,79.00
2022-12-04T07:28:44.589Z,66.50
2022-12-04T07:31:15.346Z,72.20
2022-12-04T07:33:42.196Z,65.80
2022-12-04T07:36:10.469Z,61.10
2022-12-04T07:38:36.885Z,74.10
2022-12-04T07:41:04.359Z,76.70
2022-12-04T07:43:30.902Z,68.20
2022-12-04T07:45:58.448Z,74.50
2022-12-04T07:48:28.784Z,60.60
2022-12-04T07:51:05.363Z,62.80
2022-12-04T07:53:32.994Z,66.50
2022-12-04T07:55:59.335Z,66.80
2022-12-04T07:58:25.722Z,63.90
2022-12-04T08:00:52.113Z,65.70
2022-12-04T08:03:18.525Z,65.20
2022-12-04T08:05:45.039Z,57.80
2022-12-04T08:08:11.448Z,63.30
2022-12-04T08:10:40.900Z,59.60
2022-12-04T08:13:07.309Z,56.40
2022-12-04T08:15:34.463Z,60.40
2022-12-04T08:18:00.896Z,61.60
2022-12-04T08:20:27.260Z,62.00
2022-12-04T08:22:53.672Z,64.90
2022-12-04T08:25:20.024Z,60.00
2022-12-04T08:27:47.729Z,60.30
2022-12-04T08:30:14.516Z,68.30
2022-12-04T08:32:41.033Z,69.50
2022-12-04T08:35:07.928Z,63.70
2022-12-04T08:37:34.787Z,69.30
2022-12-04T08:40:01.591Z,69.40
2022-12-04T08:42:28.568Z,82.30
2022-12-04T08:44:55.810Z,79.40
2022-12-04T08:47:22.705Z,73.30
2022-12-04T08:49:49.867Z,77.40
2022-12-04T08:52:16.707Z,81.60
2022-12-04T08:54:43.694Z,87.20
2022-12-04T08:57:10.740Z,74.70
2022-12-04T08:59:38.315Z,74.40
2022-12-04T09:02:05.824Z,76.20
2022-12-04T09:04:34.443Z,77.20
2022-12-04T09:07:01.949Z,78.50
2022-12-04T09:09:29.314Z,77.20
2022-12-04T09:11:56.569Z,78.20
2022-12-04T09:14:25.694Z,83.50
2022-12-04T09:16:53.522Z,81.80
2022-12-04T09:19:20.955Z,79.50
2022-12-04T09:21:47.347Z,86.50
2022-12-04T09:24:14.658Z,78.10
2022-12-04T09:26:42.022Z,67.00
2022-12-04T09:29:10.543Z,83.10
2022-12-04T09:31:37.613Z,69.30
2022-12-04T09:34:05.000Z,76.00
2022-12-04T09:36:34.052Z,70.70
2022-12-04T09:39:00.664Z,72.40
2022-12-04T09:41:30.619Z,83.50
2022-12-04T09:44:00.873Z,66.70
2022-12-04T09:46:32.933Z,78.40
2022-12-04T09:49:35.964Z,67.30
2022-12-04T09:52:08.442Z,62.20
2022-12-04T09:54:42.190Z,70.50
2022-12-04T09:57:14.487Z,89.60
2022-12-04T09:59:43.465Z,93.40
2022-12-04T10:02:24.022Z,96.40
2022-12-04T10:04:52.657Z,65.90
2022-12-04T10:07:25.191Z,68.90
2022-12-04T10:09:53.390Z,71.30
2022-12-04T10:12:40.585Z,79.50
2022-12-04T10:15:15.276Z,83.20
2022-12-04T10:18:24.986Z,83.00
2022-12-04T10:21:15.645Z,70.60
2022-12-04T10:23:53.253Z,81.10
2022-12-04T10:26:24.089Z,76.90
2022-12-04T10:28:58.927Z,87.20
2022-12-04T10:31:28.840Z,96.80
2022-12-04T10:34:00.695Z,104.10
2022-12-04T10:36:31.777Z,86.40
2022-12-04T10:41:34.199Z,77.90
2022-12-04T10:44:02.563Z,79.50
2022-12-04T10:46:33.552Z,77.60
2022-12-04T10:49:03.478Z,78.80
2022-12-04T10:51:39.650Z,75.70
2022-12-04T10:54:30.929Z,80.10
2022-12-04T10:56:58.840Z,78.40
2022-12-04T10:59:27.845Z,96.80
2022-12-04T11:02:06.374Z,82.40
2022-12-04T11:04:35.439Z,112.80
2022-12-04T11:07:05.060Z,110.40
2022-12-04T11:09:32.972Z,79.30
2022-12-04T11:12:08.815Z,76.90
2022-12-04T11:14:37.027Z,67.90
2022-12-04T11:17:06.327Z,76.40
2022-12-04T11:19:37.102Z,78.40
2022-12-04T11:22:13.751Z,73.40
2022-12-04T11:24:42.872Z,80.80
2022-12-04T11:27:20.421Z,82.50
2022-12-04T11:29:49.271Z,83.70
2022-12-04T11:32:29.252Z,73.00
2022-12-04T11:34:59.499Z,73.80
2022-12-04T11:37:32.031Z,66.20
2022-12-04T11:40:01.155Z,65.30
2022-12-04T11:42:31.931Z,74.10
2022-12-04T11:45:04.763Z,56.40
2022-12-04T11:47:33.111Z,64.30
2022-12-04T11:50:18.527Z,80.30
2022-12-04T11:52:52.849Z,75.10
2022-12-04T11:55:28.755Z,83.10
2022-12-04T11:58:00.117Z,60.90
2022-12-04T12:00:28.878Z,60.60
2022-12-04T12:03:19.441Z,60.00
2022-12-04T12:06:02.575Z,61.10
2022-12-04T12:08:39.150Z,67.70
2022-12-04T12:11:07.515Z,64.00
2022-12-04T12:13:59.744Z,72.50
2022-12-04T12:16:37.100Z,76.50
2022-12-04T12:19:20.504Z,80.20
2022-12-04T12:21:51.478Z,95.80
2022-12-04T12:24:19.539Z,82.80
2022-12-04T12:26:56.559Z,91.00
2022-12-04T12:29:36.613Z,73.10
2022-12-04T12:32:05.028Z,84.30
2022-12-04T12:34:46.686Z,75.80
2022-12-04T12:39:50.907Z,85.20
2022-12-04T12:42:21.301Z,70.30
2022-12-04T12:44:53.308Z,74.90
2022-12-04T12:47:24.104Z,71.50
2022-12-04T12:49:55.496Z,74.60
2022-12-04T12:52:49.885Z,88.60
2022-12-04T12:55:25.808Z,77.00
2022-12-04T12:58:12.267Z,72.10
2022-12-04T13:01:09.766Z,76.20
2022-12-04T13:03:41.553Z,75.50
2022-12-04T13:06:14.758Z,65.20
2022-12-04T13:08:49.254Z,69.30
2022-12-04T13:11:18.087Z,61.90
2022-12-04T13:13:48.601Z,70.70
2022-12-04T13:16:23.163Z,69.10
2022-12-04T13:18:55.334Z,66.70
2022-12-04T13:21:31.943Z,80.80
2022-12-04T13:24:18.857Z,78.80
2022-12-04T13:26:49.918Z,86.10
2022-12-04T13:29:32.979Z,79.30
2022-12-04T13:32:14.224Z,103.60
2022-12-04T13:37:17.663Z,77.80
2022-12-04T13:50:06.589Z,83.00
2022-12-04T13:52:40.039Z,75.20
2022-12-04T13:55:26.344Z,82.30
2022-12-04T13:57:54.308Z,86.60
2022-12-04T14:00:31.979Z,88.80
2022-12-04T14:03:00.543Z,88.10
2022-12-04T14:05:29.028Z,92.90
2022-12-04T14:08:07.891Z,96.10
2022-12-04T14:10:36.272Z,103.40
2022-12-04T14:13:12.030Z,78.70
2022-12-04T14:15:38.861Z,88.50
2022-12-04T14:18:17.065Z,103.60
2022-12-04T14:20:44.054Z,111.30
2022-12-04T14:23:25.818Z,95.10
2022-12-04T14:25:58.391Z,87.60
2022-12-04T14:28:26.413Z,86.70
2022-12-04T14:31:08.215Z,86.10
2022-12-04T14:33:57.836Z,83.70
2022-12-04T14:36:30.808Z,91.90
2022-12-04T14:39:17.529Z,90.00
2022-12-04T14:41:46.930Z,89.80
2022-12-04T14:44:39.472Z,95.40
2022-12-04T14:47:24.786Z,102.80
2022-12-04T14:49:51.285Z,113.10
2022-12-04T14:52:27.577Z,92.30
2022-12-04T14:55:00.598Z,121.70
2022-12-04T14:57:30.093Z,99.50
2022-12-04T14:59:56.795Z,97.50
2022-12-04T15:02:34.088Z,92.50
2022-12-04T15:05:01.412Z,97.40
2022-12-04T15:07:30.344Z,98.10
2022-12-04T15:10:17.437Z,109.40
2022-12-04T15:12:52.373Z,127.10
2022-12-04T15:15:21.395Z,115.70
2022-12-04T15:17:57.624Z,114.80
2022-12-04T15:20:24.287Z,103.50
2022-12-04T15:22:50.902Z,104.90
2022-12-04T15:25:19.285Z,115.10
2022-12-04T15:27:47.552Z,107.10
2022-12-04T15:30:15.725Z,119.70
2022-12-04T15:32:42.489Z,100.50
2022-12-04T15:35:12.186Z,93.80
2022-12-04T15:37:39.961Z,114.00
2022-12-04T15:40:07.602Z,101.70
2022-12-04T15:42:34.137Z,88.90
2022-12-04T15:45:09.876Z,93.50
2022-12-04T15:47:37.553Z,77.40
2022-12-04T15:50:19.784Z,90.10
2022-12-04T15:52:53.458Z,117.30
2022-12-04T15:55:20.933Z,113.70
2022-12-04T15:57:55.647Z,110.70
2022-12-04T16:00:27.206Z,104.60
2022-12-04T16:02:54.414Z,111.60
2022-12-04T16:05:21.086Z,95.30
2022-12-04T16:07:49.513Z,93.50
2022-12-04T16:10:45.397Z,91.70
2022-12-04T16:13:26.003Z,106.40
2022-12-04T16:15:52.535Z,101.70
2022-12-04T16:18:19.125Z,98.50
2022-12-04T16:20:45.685Z,119.90
2022-12-04T16:23:12.415Z,136.20
2022-12-04T16:25:38.767Z,106.90
2022-12-04T16:28:05.262Z,114.50
2022-12-04T16:30:33.225Z,117.20
2022-12-04T16:32:59.688Z,83.00
2022-12-04T16:35:26.311Z,97.20
2022-12-04T16:37:52.750Z,92.90
2022-12-04T16:40:19.282Z,84.60
2022-12-04T16:42:46.310Z,76.90
2022-12-04T16:45:26.793Z,97.20
2022-12-04T16:47:53.278Z,98.70
2022-12-04T16:50:20.081Z,81.90
2022-12-04T16:52:46.494Z,83.20
2022-12-04T16:55:15.631Z,73.70
2022-12-04T16:57:42.130Z,80.30
2022-12-04T17:00:11.492Z,88.40
2022-12-04T17:02:37.963Z,81.00
2022-12-04T17:05:04.701Z,91.40
2022-12-04T17:07:31.362Z,76.70
2022-12-04T17:09:57.877Z,77.60
2022-12-04T17:12:24.275Z,83.70
2022-12-04T17:14:50.767Z,83.30
2022-12-04T17:17:17.281Z,83.00
2022-12-04T17:19:43.708Z,89.50
2022-12-04T17:22:10.246Z,76.40
2022-12-04T17:24:40.763Z,62.60
2022-12-04T17:27:13.691Z,72.00
2022-12-04T17:29:40.202Z,91.20
2022-12-04T17:32:06.560Z,84.90
2022-12-04T17:34:32.946Z,75.20
2022-12-04T17:36:59.333Z,77.40
2022-12-04T17:39:25.695Z,76.90
2022-12-04T17:41:52.055Z,75.40
2022-12-04T17:44:18.473Z,75.30
2022-12-04T17:46:44.940Z,74.40
2022-12-04T17:49:11.453Z,79.80
2022-12-04T17:51:37.887Z,88.70
2022-12-04T17:54:04.961Z,87.30
2022-12-04T17:56:31.613Z,66.20
2022-12-04T17:58:58.107Z,60.10
2022-12-04T18:01:25.723Z,71.20
2022-12-04T18:03:53.343Z,62.00
2022-12-04T18:06:21.473Z,74.60
2022-12-04T18:08:50.210Z,65.50
2022-12-04T18:11:20.841Z,74.00
2022-12-04T18:13:48.231Z,99.00
2022-12-04T18:16:14.708Z,78.30
2022-12-04T18:18:41.220Z,74.80
2022-12-04T18:21:08.927Z,81.00
2022-12-04T18:23:43.964Z,61.30
2022-12-04T18:26:11.882Z,76.80
2022-12-04T18:28:38.298Z,73.60
2022-12-04T18:31:05.945Z,75.30
2022-12-04T18:33:33.771Z,93.20
2022-12-04T18:36:00.413Z,82.30
2022-12-04T18:38:27.883Z,63.50
2022-12-04T18:40:54.289Z,85.70
2022-12-04T18:43:21.199Z,66.90
2022-12-04T18:45:56.321Z,76.80
2022-12-04T18:48:22.949Z,87.50
2022-12-04T18:50:50.272Z,85.90
2022-12-04T18:53:17.985Z,70.40
2022-12-04T18:55:45.206Z,79.20
2022-12-04T18:58:11.537Z,60.40
2022-12-04T19:00:38.301Z,66.20
2022-12-04T19:03:05.386Z,70.30
2022-12-04T19:05:34.092Z,58.10
2022-12-04T19:08:00.668Z,51.50
2022-12-04T19:10:27.938Z,49.70
2022-12-04T19:12:54.597Z,49.90
2022-12-04T19:15:21.178Z,51.80
2022-12-04T19:17:47.724Z,56.00
2022-12-04T19:20:16.356Z,53.20
2022-12-04T19:22:42.756Z,59.60
2022-12-04T19:25:11.213Z,61.20
2022-12-04T19:27:37.644Z,62.60
2022-12-04T19:30:05.168Z,67.60
2022-12-04T19:32:32.085Z,52.10
2022-12-04T19:34:58.509Z,67.80
2022-12-04T19:37:24.887Z,41.90
2022-12-04T19:39:51.231Z,54.90
2022-12-04T19:42:17.651Z,65.30
2022-12-04T19:44:48.794Z,52.30
2022-12-04T19:47:16.337Z,59.20
2022-12-04T19:49:42.699Z,53.70
2022-12-04T19:52:09.139Z,53.80
2022-12-04T19:54:35.601Z,54.00
2022-12-04T19:57:01.950Z,63.60
2022-12-04T19:59:31.762Z,52.30
2022-12-04T20:05:18.037Z,54.50
2022-12-04T20:07:45.872Z,58.80
2022-12-04T20:10:13.628Z,46.70
2022-12-04T20:12:41.467Z,45.70
2022-12-04T20:15:09.635Z,60.90
2022-12-04T20:17:37.865Z,49.50
2022-12-04T20:20:06.080Z,65.40
2022-12-04T20:22:35.031Z,57.10
2022-12-04T20:25:02.797Z,59.10
2022-12-04T20:27:30.577Z,85.30
2022-12-04T20:29:58.701Z,76.00
2022-12-04T20:32:26.676Z,81.80
2022-12-04T20:34:54.644Z,60.10
2022-12-04T20:37:22.786Z,67.60
2022-12-04T20:39:50.705Z,42.20
2022-12-04T20:42:18.597Z,49.90
2022-12-04T20:44:46.403Z,47.50
2022-12-04T20:47:14.269Z,61.30
2022-12-04T20:49:42.140Z,45.10
2022-12-04T20:52:11.400Z,80.10
2022-12-04T20:54:41.586Z,66.60
2022-12-04T20:57:10.294Z,52.10
2022-12-04T20:59:38.142Z,61.80
2022-12-04T21:02:05.936Z,70.60
2022-12-04T21:04:38.095Z,59.70
2022-12-04T21:07:06.241Z,69.30
2022-12-04T21:09:36.580Z,53.40
2022-12-04T21:12:24.928Z,70.80
2022-12-04T21:15:11.538Z,113.10
2022-12-04T21:17:40.341Z,62.40
2022-12-04T21:20:09.646Z,67.30
2022-12-04T21:22:37.661Z,57.40
2022-12-04T21:25:05.500Z,76.00
2022-12-04T21:27:33.239Z,60.50
2022-12-04T21:30:02.110Z,60.80
2022-12-04T21:32:30.198Z,57.40
2022-12-04T21:34:58.013Z,56.10
2022-12-04T21:37:25.822Z,58.30
2022-12-04T21:39:53.580Z,52.40
2022-12-04T21:42:30.756Z,54.50
2022-12-04T21:44:59.311Z,38.20
2022-12-04T21:47:27.525Z,47.60
2022-12-04T21:49:55.726Z,44.90
2022-12-04T21:52:24.005Z,43.90
2022-12-04T21:54:52.560Z,42.50
2022-12-04T21:57:21.070Z,42.70
2022-12-04T21:59:50.777Z,50.70
2022-12-04T22:02:19.035Z,54.70
2022-12-04T22:04:47.127Z,63.40
2022-12-04T22:07:15.145Z,52.10
2022-12-04T22:09:45.713Z,67.30
2022-12-04T22:12:48.036Z,54.30
2022-12-04T22:15:01.409Z,57.30
2022-12-04T22:17:29.651Z,61.20
2022-12-04T22:19:57.642Z,50.50
2022-12-04T22:22:25.714Z,53.10
2022-12-04T22:24:53.512Z,52.60
2022-12-04T22:27:21.214Z,47.50
2022-12-04T22:29:50.933Z,39.20
2022-12-04T22:32:20.041Z,43.40
2022-12-04T22:34:48.946Z,40.30
2022-12-04T22:37:17.001Z,53.00
2022-12-04T22:39:44.801Z,50.80
2022-12-04T22:42:12.558Z,39.70
2022-12-04T22:44:40.428Z,53.90
2022-12-04T22:47:08.243Z,52.00
2022-12-04T22:49:36.093Z,45.60
2022-12-04T22:52:03.966Z,39.50
2022-12-04T22:54:31.915Z,43.30
2022-12-04T22:57:00.039Z,46.40
2022-12-04T22:59:27.833Z,52.10
2022-12-04T23:01:55.549Z,49.30
2022-12-04T23:04:23.295Z,48.60
2022-12-04T23:06:51.096Z,44.00
2022-12-04T23:09:19.793Z,44.40
2022-12-04T23:11:50.999Z,45.70
2022-12-04T23:14:19.151Z,46.50
2022-12-04T23:16:47.422Z,41.30
2022-12-04T23:19:16.373Z,52.40
2022-12-04T23:21:44.243Z,53.60
2022-12-04T23:24:12.669Z,44.60
2022-12-04T23:26:42.586Z,51.90
2022-12-04T23:29:29.734Z,44.60
2022-12-04T23:31:58.839Z,46.50
2022-12-04T23:34:26.804Z,45.20
2022-12-04T23:36:54.573Z,43.80
2022-12-04T23:39:22.465Z,38.10
2022-12-04T23:41:50.181Z,37.80
2022-12-04T23:44:17.976Z,40.70
2022-12-04T23:46:46.014Z,39.50
2022-12-04T23:49:14.021Z,43.40
2022-12-04T23:51:41.887Z,39.60
2022-12-04T23:54:09.644Z,38.10
2022-12-04T23:56:37.468Z,41.00
2022-12-04T23:59:05.385Z,47.40
